Guadalupe, California
Current Conditions -  °F | °C
As of 9:51 PM on Tuesday 25 Nov 2014 (Local Time) from KSMX Reporting Station
Clear Clear  
Wind Chill: 54°   Ceiling: Unl
Heat Index: 54°   Visibility: 10mi
Dew Point: 32°   Wind: 6mph
Humidity: 43%   Direction: 100°E
Pressure: 30.3"   Gusts: NA
Location:  34.96°N, 120.57°W
Report Text: KSMX 260551Z AUTO 10005KT 10SM CLR 12/00 A3030 RMK AO2 SLP260 T01220000 10228 20106 58006 $
Loading
Personal Weather Stations






























Interactive Weather Map New forecast layout! Learn more

10-Day Weather Forecast

Advertisements
Track Severe Weather on mobile